Grover, Colorado
Current Conditions -  °F | °C
As of 7:15 AM on Friday 24 Oct 2014 (Local Time) from K82V Reporting Station
Clear Clear  
Wind Chill: 52°   Ceiling: Unl
Heat Index: 52°   Visibility: 10mi
Dew Point: 32°   Wind: 8mph
Humidity: 47%   Direction: 240°WSW
Pressure: 30.13"   Gusts: NA
Location:  40.87°N, 104.23°W
Report Text: K82V 241315Z AUTO 24007KT 10SM CLR 11/00 A3013 RMK AO2
Loading
Personal Weather Stations






























Interactive Weather Map
Tropical Storm Tracking
New forecast layout! Learn more

10-Day Weather Forecast

Advertisements
Track Severe Weather on mobile